sensor_id;sensor_type;location;lat;lon;timestamp;pressure;altitude;pressure_sealevel;temperature;humidity
9672;BME280;4874;43.568;27.824;2023-04-10T00:02:22;99217.13;;;8.04;100.00
9672;BME280;4874;43.568;27.824;2023-04-10T00:04:49;99208.47;;;8.13;100.00
9672;BME280;4874;43.568;27.824;2023-04-10T00:07:16;99225.56;;;8.31;100.00
9672;BME280;4874;43.568;27.824;2023-04-10T00:09:43;99209.66;;;8.20;100.00
9672;BME280;4874;43.568;27.824;2023-04-10T00:12:10;99208.50;;;7.91;100.00
9672;BME280;4874;43.568;27.824;2023-04-10T00:14:36;99195.53;;;7.77;100.00
9672;BME280;4874;43.568;27.824;2023-04-10T00:17:03;99202.75;;;7.75;100.00
9672;BME280;4874;43.568;27.824;2023-04-10T00:19:30;99201.31;;;7.82;100.00
9672;BME280;4874;43.568;27.824;2023-04-10T00:21:56;99198.91;;;7.79;100.00
9672;BME280;4874;43.568;27.824;2023-04-10T00:24:23;99204.91;;;7.70;100.00
9672;BME280;4874;43.568;27.824;2023-04-10T00:26:50;99197.00;;;7.81;100.00
9672;BME280;4874;43.568;27.824;2023-04-10T00:29:17;99195.53;;;7.77;100.00
9672;BME280;4874;43.568;27.824;2023-04-10T00:31:44;99195.16;;;7.92;100.00
9672;BME280;4874;43.568;27.824;2023-04-10T00:34:10;99179.56;;;7.78;100.00
9672;BME280;4874;43.568;27.824;2023-04-10T00:36:39;99157.63;;;7.45;100.00
9672;BME280;4874;43.568;27.824;2023-04-10T00:39:07;99188.47;;;7.44;100.00
9672;BME280;4874;43.568;27.824;2023-04-10T00:41:34;99195.44;;;7.45;100.00
9672;BME280;4874;43.568;27.824;2023-04-10T00:44:01;99145.97;;;7.14;100.00
9672;BME280;4874;43.568;27.824;2023-04-10T00:46:30;99180.53;;;7.44;100.00
9672;BME280;4874;43.568;27.824;2023-04-10T00:48:57;99161.22;;;7.33;100.00
9672;BME280;4874;43.568;27.824;2023-04-10T00:51:24;99180.53;;;7.33;100.00
9672;BME280;4874;43.568;27.824;2023-04-10T00:53:52;99174.91;;;7.38;100.00
9672;BME280;4874;43.568;27.824;2023-04-10T00:56:22;99171.25;;;7.05;100.00
9672;BME280;4874;43.568;27.824;2023-04-10T00:58:49;99178.50;;;7.14;100.00
9672;BME280;4874;43.568;27.824;2023-04-10T01:01:16;99177.06;;;7.22;100.00
9672;BME280;4874;43.568;27.824;2023-04-10T01:03:43;99176.19;;;7.32;100.00
9672;BME280;4874;43.568;27.824;2023-04-10T01:06:15;99175.59;;;7.18;100.00
9672;BME280;4874;43.568;27.824;2023-04-10T01:09:08;99167.19;;;7.24;100.00
9672;BME280;4874;43.568;27.824;2023-04-10T01:14:30;99157.72;;;7.32;100.00
9672;BME280;4874;43.568;27.824;2023-04-10T01:20:22;99161.06;;;7.12;100.00
9672;BME280;4874;43.568;27.824;2023-04-10T01:26:05;99158.19;;;7.04;100.00
9672;BME280;4874;43.568;27.824;2023-04-10T01:28:51;99164.19;;;7.06;100.00
9672;BME280;4874;43.568;27.824;2023-04-10T01:32:10;99155.53;;;7.15;100.00
9672;BME280;4874;43.568;27.824;2023-04-10T01:34:46;99157.84;;;7.20;100.00
9672;BME280;4874;43.568;27.824;2023-04-10T01:37:24;99160.72;;;7.16;100.00
9672;BME280;4874;43.568;27.824;2023-04-10T01:40:05;99148.34;;;7.17;100.00
9672;BME280;4874;43.568;27.824;2023-04-10T01:42:38;99120.84;;;6.86;100.00
9672;BME280;4874;43.568;27.824;2023-04-10T01:45:13;99156.88;;;7.21;100.00
9672;BME280;4874;43.568;27.824;2023-04-10T01:47:42;99152.31;;;7.34;100.00
9672;BME280;4874;43.568;27.824;2023-04-10T01:50:10;99155.69;;;7.36;100.00
9672;BME280;4874;43.568;27.824;2023-04-10T01:52:38;99156.75;;;7.44;100.00
9672;BME280;4874;43.568;27.824;2023-04-10T01:55:07;99150.75;;;7.09;100.00
9672;BME280;4874;43.568;27.824;2023-04-10T01:57:34;99137.56;;;7.09;100.00
9672;BME280;4874;43.568;27.824;2023-04-10T02:00:05;99155.66;;;7.02;100.00
9672;BME280;4874;43.568;27.824;2023-04-10T02:02:32;99126.63;;;6.91;100.00
9672;BME280;4874;43.568;27.824;2023-04-10T02:04:59;99153.66;;;7.28;100.00
9672;BME280;4874;43.568;27.824;2023-04-10T02:07:40;99149.22;;;7.40;100.00
9672;BME280;4874;43.568;27.824;2023-04-10T02:10:14;99145.38;;;7.22;100.00
9672;BME280;4874;43.568;27.824;2023-04-10T02:13:04;99033.97;;;6.50;100.00
9672;BME280;4874;43.568;27.824;2023-04-10T02:15:33;99140.53;;;7.04;100.00
9672;BME280;4874;43.568;27.824;2023-04-10T02:18:03;99147.50;;;7.05;100.00
9672;BME280;4874;43.568;27.824;2023-04-10T02:20:32;99144.38;;;7.00;100.00
9672;BME280;4874;43.568;27.824;2023-04-10T02:22:59;99146.75;;;6.92;100.00
9672;BME280;4874;43.568;27.824;2023-04-10T02:25:33;99137.56;;;6.63;100.00
9672;BME280;4874;43.568;27.824;2023-04-10T02:28:07;99140.38;;;6.84;100.00
9672;BME280;4874;43.568;27.824;2023-04-10T02:30:34;99115.16;;;6.58;100.00
9672;BME280;4874;43.568;27.824;2023-04-10T02:33:01;99097.75;;;6.55;100.00
9672;BME280;4874;43.568;27.824;2023-04-10T02:35:28;99137.28;;;6.90;100.00
9672;BME280;4874;43.568;27.824;2023-04-10T02:37:55;99138.22;;;6.78;100.00
9672;BME280;4874;43.568;27.824;2023-04-10T02:40:22;99104.41;;;6.72;100.00
9672;BME280;4874;43.568;27.824;2023-04-10T02:42:49;99135.00;;;6.85;100.00
9672;BME280;4874;43.568;27.824;2023-04-10T02:45:15;99141.34;;;6.83;100.00
9672;BME280;4874;43.568;27.824;2023-04-10T02:47:42;99137.84;;;6.82;100.00
9672;BME280;4874;43.568;27.824;2023-04-10T02:50:09;99133.78;;;6.78;100.00
9672;BME280;4874;43.568;27.824;2023-04-10T02:52:36;99135.50;;;6.90;100.00
9672;BME280;4874;43.568;27.824;2023-04-10T02:55:03;99130.19;;;6.79;100.00
9672;BME280;4874;43.568;27.824;2023-04-10T02:57:30;99136.06;;;6.72;100.00
9672;BME280;4874;43.568;27.824;2023-04-10T02:59:57;99125.88;;;6.78;100.00
9672;BME280;4874;43.568;27.824;2023-04-10T03:02:23;99030.81;;;6.23;100.00
9672;BME280;4874;43.568;27.824;2023-04-10T03:04:50;99132.47;;;6.84;100.00
9672;BME280;4874;43.568;27.824;2023-04-10T03:07:19;99115.91;;;6.71;100.00
9672;BME280;4874;43.568;27.824;2023-04-10T03:09:45;99136.44;;;6.78;100.00
9672;BME280;4874;43.568;27.824;2023-04-10T03:12:12;99133.50;;;6.70;100.00
9672;BME280;4874;43.568;27.824;2023-04-10T03:14:38;99134.72;;;6.66;100.00
9672;BME280;4874;43.568;27.824;2023-04-10T03:17:06;99131.84;;;6.35;100.00
9672;BME280;4874;43.568;27.824;2023-04-10T03:19:33;99128.16;;;6.37;100.00
9672;BME280;4874;43.568;27.824;2023-04-10T03:22:00;99128.28;;;6.36;100.00
9672;BME280;4874;43.568;27.824;2023-04-10T03:24:27;99129.31;;;6.33;100.00
9672;BME280;4874;43.568;27.824;2023-04-10T03:26:54;99129.16;;;6.58;100.00
9672;BME280;4874;43.568;27.824;2023-04-10T03:29:22;99121.66;;;6.41;100.00
9672;BME280;4874;43.568;27.824;2023-04-10T03:31:49;99124.28;;;6.65;100.00
9672;BME280;4874;43.568;27.824;2023-04-10T03:34:16;99103.13;;;6.43;100.00
9672;BME280;4874;43.568;27.824;2023-04-10T03:36:43;99126.75;;;6.55;100.00
9672;BME280;4874;43.568;27.824;2023-04-10T03:39:10;99130.13;;;6.57;100.00
9672;BME280;4874;43.568;27.824;2023-04-10T03:41:37;99130.88;;;6.59;100.00
9672;BME280;4874;43.568;27.824;2023-04-10T03:44:03;99129.56;;;6.65;100.00
9672;BME280;4874;43.568;27.824;2023-04-10T03:46:30;99131.13;;;6.67;100.00
9672;BME280;4874;43.568;27.824;2023-04-10T03:48:57;99093.16;;;6.46;100.00
9672;BME280;4874;43.568;27.824;2023-04-10T03:51:24;99128.34;;;6.58;100.00
9672;BME280;4874;43.568;27.824;2023-04-10T03:53:52;99129.78;;;6.62;100.00
9672;BME280;4874;43.568;27.824;2023-04-10T03:56:19;99130.44;;;6.76;100.00
9672;BME280;4874;43.568;27.824;2023-04-10T03:58:45;99105.97;;;6.40;100.00
9672;BME280;4874;43.568;27.824;2023-04-10T04:01:12;99043.00;;;6.24;100.00
9672;BME280;4874;43.568;27.824;2023-04-10T04:03:39;99126.56;;;6.69;100.00
9672;BME280;4874;43.568;27.824;2023-04-10T04:06:06;99124.53;;;6.84;100.00
9672;BME280;4874;43.568;27.824;2023-04-10T04:08:32;99133.03;;;6.65;100.00
9672;BME280;4874;43.568;27.824;2023-04-10T04:11:01;99078.31;;;6.45;100.00
9672;BME280;4874;43.568;27.824;2023-04-10T04:13:28;99122.88;;;6.83;100.00
9672;BME280;4874;43.568;27.824;2023-04-10T04:15:55;99124.53;;;6.84;100.00
9672;BME280;4874;43.568;27.824;2023-04-10T04:18:21;99129.31;;;6.68;100.00
9672;BME280;4874;43.568;27.824;2023-04-10T04:20:48;99126.09;;;6.75;100.00
9672;BME280;4874;43.568;27.824;2023-04-10T04:23:15;99127.47;;;6.92;100.00
9672;BME280;4874;43.568;27.824;2023-04-10T04:25:43;99122.03;;;6.82;100.00
9672;BME280;4874;43.568;27.824;2023-04-10T04:28:09;99092.63;;;6.65;100.00
9672;BME280;4874;43.568;27.824;2023-04-10T04:30:38;99128.47;;;6.67;100.00
9672;BME280;4874;43.568;27.824;2023-04-10T04:33:05;99139.31;;;6.86;100.00
9672;BME280;4874;43.568;27.824;2023-04-10T04:35:32;99138.34;;;6.87;100.00
9672;BME280;4874;43.568;27.824;2023-04-10T04:37:59;99137.59;;;6.74;100.00
9672;BME280;4874;43.568;27.824;2023-04-10T04:40:25;99071.88;;;6.15;100.00
9672;BME280;4874;43.568;27.824;2023-04-10T04:42:52;99137.41;;;6.88;100.00
9672;BME280;4874;43.568;27.824;2023-04-10T04:45:19;99137.84;;;6.71;100.00
9672;BME280;4874;43.568;27.824;2023-04-10T04:47:47;99131.97;;;6.79;100.00
9672;BME280;4874;43.568;27.824;2023-04-10T04:50:14;99143.69;;;7.09;100.00
9672;BME280;4874;43.568;27.824;2023-04-10T04:52:42;99139.72;;;7.15;100.00
9672;BME280;4874;43.568;27.824;2023-04-10T04:55:08;99136.00;;;7.29;100.00
9672;BME280;4874;43.568;27.824;2023-04-10T04:57:35;99136.84;;;7.51;100.00
9672;BME280;4874;43.568;27.824;2023-04-10T05:00:02;99130.00;;;7.71;100.00
9672;BME280;4874;43.568;27.824;2023-04-10T05:02:29;99106.13;;;7.50;100.00
9672;BME280;4874;43.568;27.824;2023-04-10T05:04:56;99126.63;;;7.80;100.00
9672;BME280;4874;43.568;27.824;2023-04-10T05:07:23;99128.03;;;7.84;100.00
9672;BME280;4874;43.568;27.824;2023-04-10T05:09:49;99065.06;;;7.46;100.00
9672;BME280;4874;43.568;27.824;2023-04-10T05:12:16;99112.03;;;7.85;100.00
9672;BME280;4874;43.568;27.824;2023-04-10T05:14:43;99121.59;;;8.08;100.00
9672;BME280;4874;43.568;27.824;2023-04-10T05:17:10;99122.91;;;8.14;100.00
9672;BME280;4874;43.568;27.824;2023-04-10T05:19:37;99127.09;;;8.27;100.00
9672;BME280;4874;43.568;27.824;2023-04-10T05:22:03;99126.97;;;8.18;100.00
9672;BME280;4874;43.568;27.824;2023-04-10T05:24:30;99123.00;;;8.35;100.00
9672;BME280;4874;43.568;27.824;2023-04-10T05:26:57;99118.94;;;8.51;100.00
9672;BME280;4874;43.568;27.824;2023-04-10T05:29:23;99118.22;;;8.49;100.00
9672;BME280;4874;43.568;27.824;2023-04-10T05:31:50;99098.28;;;8.45;100.00
9672;BME280;4874;43.568;27.824;2023-04-10T05:34:18;99115.91;;;8.56;100.00
9672;BME280;4874;43.568;27.824;2023-04-10T05:36:45;99126.03;;;8.71;100.00
9672;BME280;4874;43.568;27.824;2023-04-10T05:39:12;99126.13;;;8.60;100.00
9672;BME280;4874;43.568;27.824;2023-04-10T05:41:38;99122.22;;;8.85;100.00
9672;BME280;4874;43.568;27.824;2023-04-10T05:44:05;99125.78;;;8.95;100.00
9672;BME280;4874;43.568;27.824;2023-04-10T05:46:32;99104.84;;;9.12;100.00
9672;BME280;4874;43.568;27.824;2023-04-10T05:48:59;99117.16;;;9.23;100.00
9672;BME280;4874;43.568;27.824;2023-04-10T05:51:26;99128.81;;;9.11;100.00
9672;BME280;4874;43.568;27.824;2023-04-10T05:53:52;99127.00;;;9.41;100.00
9672;BME280;4874;43.568;27.824;2023-04-10T05:56:19;99123.91;;;9.36;100.00
9672;BME280;4874;43.568;27.824;2023-04-10T05:58:47;99121.44;;;9.44;100.00
9672;BME280;4874;43.568;27.824;2023-04-10T06:01:14;99134.81;;;9.43;100.00
9672;BME280;4874;43.568;27.824;2023-04-10T06:03:41;99076.19;;;8.97;100.00
9672;BME280;4874;43.568;27.824;2023-04-10T06:06:08;99121.06;;;9.49;100.00
9672;BME280;4874;43.568;27.824;2023-04-10T06:08:37;99028.09;;;8.92;100.00
9672;BME280;4874;43.568;27.824;2023-04-10T06:11:04;99126.22;;;9.50;100.00
9672;BME280;4874;43.568;27.824;2023-04-10T06:13:31;99126.88;;;9.43;100.00
9672;BME280;4874;43.568;27.824;2023-04-10T06:15:58;99126.66;;;9.56;100.00
9672;BME280;4874;43.568;27.824;2023-04-10T06:18:25;99125.66;;;9.57;100.00
9672;BME280;4874;43.568;27.824;2023-04-10T06:20:52;99121.22;;;9.57;100.00
9672;BME280;4874;43.568;27.824;2023-04-10T06:23:18;99109.38;;;9.61;100.00
9672;BME280;4874;43.568;27.824;2023-04-10T06:25:45;99115.88;;;9.47;100.00
9672;BME280;4874;43.568;27.824;2023-04-10T06:28:12;99121.88;;;9.49;100.00
9672;BME280;4874;43.568;27.824;2023-04-10T06:30:39;99125.22;;;9.51;100.00
9672;BME280;4874;43.568;27.824;2023-04-10T06:33:06;99118.69;;;9.46;100.00
9672;BME280;4874;43.568;27.824;2023-04-10T06:35:33;99116.19;;;9.54;100.00
9672;BME280;4874;43.568;27.824;2023-04-10T06:38:01;99125.94;;;9.53;100.00
9672;BME280;4874;43.568;27.824;2023-04-10T06:40:28;99111.53;;;9.77;100.00
9672;BME280;4874;43.568;27.824;2023-04-10T06:42:56;99129.59;;;9.62;100.00
9672;BME280;4874;43.568;27.824;2023-04-10T06:45:22;99120.69;;;9.63;100.00
9672;BME280;4874;43.568;27.824;2023-04-10T06:47:49;99143.41;;;9.66;100.00
9672;BME280;4874;43.568;27.824;2023-04-10T06:50:16;99119.53;;;9.56;100.00
9672;BME280;4874;43.568;27.824;2023-04-10T06:52:44;99105.31;;;9.57;100.00
9672;BME280;4874;43.568;27.824;2023-04-10T06:55:11;99134.50;;;9.67;100.00
9672;BME280;4874;43.568;27.824;2023-04-10T06:57:38;99135.53;;;9.75;100.00
9672;BME280;4874;43.568;27.824;2023-04-10T07:00:06;99132.16;;;9.83;100.00
9672;BME280;4874;43.568;27.824;2023-04-10T07:02:33;99129.09;;;9.78;100.00
9672;BME280;4874;43.568;27.824;2023-04-10T07:05:00;99136.53;;;9.84;100.00
9672;BME280;4874;43.568;27.824;2023-04-10T07:07:26;99141.91;;;10.12;100.00
9672;BME280;4874;43.568;27.824;2023-04-10T07:09:54;99144.56;;;10.12;100.00
9672;BME280;4874;43.568;27.824;2023-04-10T07:12:23;99139.25;;;10.12;100.00
9672;BME280;4874;43.568;27.824;2023-04-10T07:14:49;99139.13;;;10.61;100.00
9672;BME280;4874;43.568;27.824;2023-04-10T07:17:16;99145.97;;;10.54;100.00
9672;BME280;4874;43.568;27.824;2023-04-10T07:19:43;99147.38;;;10.78;100.00
9672;BME280;4874;43.568;27.824;2023-04-10T07:22:10;99151.56;;;10.80;100.00
9672;BME280;4874;43.568;27.824;2023-04-10T07:24:37;99114.25;;;10.72;100.00
9672;BME280;4874;43.568;27.824;2023-04-10T07:27:03;99158.53;;;10.91;100.00
9672;BME280;4874;43.568;27.824;2023-04-10T07:29:30;99137.56;;;10.97;100.00
9672;BME280;4874;43.568;27.824;2023-04-10T07:31:56;99149.53;;;11.20;100.00
9672;BME280;4874;43.568;27.824;2023-04-10T07:34:24;99142.16;;;11.51;100.00
9672;BME280;4874;43.568;27.824;2023-04-10T07:36:51;99140.78;;;11.47;100.00
9672;BME280;4874;43.568;27.824;2023-04-10T07:39:17;99134.28;;;11.59;100.00
9672;BME280;4874;43.568;27.824;2023-04-10T07:41:44;99136.94;;;11.59;100.00
9672;BME280;4874;43.568;27.824;2023-04-10T07:44:11;99129.13;;;11.57;100.00
9672;BME280;4874;43.568;27.824;2023-04-10T07:46:39;99138.78;;;11.58;100.00
9672;BME280;4874;43.568;27.824;2023-04-10T07:49:06;99139.91;;;11.56;100.00
9672;BME280;4874;43.568;27.824;2023-04-10T07:51:34;99127.28;;;11.67;100.00
9672;BME280;4874;43.568;27.824;2023-04-10T07:54:01;99133.06;;;11.53;100.00
9672;BME280;4874;43.568;27.824;2023-04-10T07:56:29;99131.22;;;11.63;100.00
9672;BME280;4874;43.568;27.824;2023-04-10T07:58:58;99129.16;;;11.84;100.00
9672;BME280;4874;43.568;27.824;2023-04-10T08:01:26;99078.47;;;11.59;100.00
9672;BME280;4874;43.568;27.824;2023-04-10T08:03:54;99129.59;;;12.07;100.00
9672;BME280;4874;43.568;27.824;2023-04-10T08:06:24;99129.66;;;11.98;100.00
9672;BME280;4874;43.568;27.824;2023-04-10T08:08:51;99129.75;;;12.06;100.00
9672;BME280;4874;43.568;27.824;2023-04-10T08:11:28;99122.28;;;12.09;100.00
9672;BME280;4874;43.568;27.824;2023-04-10T08:13:57;99123.25;;;12.35;100.00
9672;BME280;4874;43.568;27.824;2023-04-10T08:16:25;99125.66;;;12.11;100.00
9672;BME280;4874;43.568;27.824;2023-04-10T08:18:53;99116.06;;;12.53;100.00
9672;BME280;4874;43.568;27.824;2023-04-10T08:21:21;99117.25;;;12.51;100.00
9672;BME280;4874;43.568;27.824;2023-04-10T08:23:56;99109.03;;;12.44;100.00
9672;BME280;4874;43.568;27.824;2023-04-10T08:26:24;99081.72;;;12.42;100.00
9672;BME280;4874;43.568;27.824;2023-04-10T08:28:54;99107.75;;;12.74;100.00
9672;BME280;4874;43.568;27.824;2023-04-10T08:31:22;99107.81;;;12.39;100.00
9672;BME280;4874;43.568;27.824;2023-04-10T08:33:49;99112.50;;;12.45;100.00
9672;BME280;4874;43.568;27.824;2023-04-10T08:36:16;99104.63;;;12.53;100.00
9672;BME280;4874;43.568;27.824;2023-04-10T08:38:45;99113.94;;;12.39;100.00
9672;BME280;4874;43.568;27.824;2023-04-10T08:41:14;99108.56;;;12.66;100.00
9672;BME280;4874;43.568;27.824;2023-04-10T08:43:41;99078.53;;;12.82;100.00
9672;BME280;4874;43.568;27.824;2023-04-10T08:46:08;99096.44;;;12.97;100.00
9672;BME280;4874;43.568;27.824;2023-04-10T08:48:45;99093.56;;;12.91;100.00
9672;BME280;4874;43.568;27.824;2023-04-10T08:51:18;99098.00;;;12.82;100.00
9672;BME280;4874;43.568;27.824;2023-04-10T08:53:49;99092.41;;;12.85;100.00
9672;BME280;4874;43.568;27.824;2023-04-10T08:56:17;99089.53;;;13.05;100.00
9672;BME280;4874;43.568;27.824;2023-04-10T08:58:44;99088.19;;;13.26;100.00
9672;BME280;4874;43.568;27.824;2023-04-10T09:01:11;99095.38;;;13.34;100.00
9672;BME280;4874;43.568;27.824;2023-04-10T09:03:38;99090.72;;;13.36;100.00
9672;BME280;4874;43.568;27.824;2023-04-10T09:06:05;99087.44;;;13.42;100.00
9672;BME280;4874;43.568;27.824;2023-04-10T09:08:33;99094.22;;;13.36;100.00
9672;BME280;4874;43.568;27.824;2023-04-10T09:10:59;99085.75;;;13.41;100.00
9672;BME280;4874;43.568;27.824;2023-04-10T09:13:40;99073.97;;;13.18;100.00
9672;BME280;4874;43.568;27.824;2023-04-10T09:16:09;99053.56;;;12.83;100.00
9672;BME280;4874;43.568;27.824;2023-04-10T09:18:53;99058.00;;;13.26;100.00
9672;BME280;4874;43.568;27.824;2023-04-10T09:21:21;99062.75;;;13.40;100.00
9672;BME280;4874;43.568;27.824;2023-04-10T09:23:48;99066.38;;;13.31;100.00
9672;BME280;4874;43.568;27.824;2023-04-10T09:26:28;99074.56;;;13.37;100.00
9672;BME280;4874;43.568;27.824;2023-04-10T09:31:30;99050.50;;;13.21;100.00
9672;BME280;4874;43.568;27.824;2023-04-10T09:34:10;99060.69;;;13.26;100.00
9672;BME280;4874;43.568;27.824;2023-04-10T09:36:52;98969.97;;;12.84;100.00
9672;BME280;4874;43.568;27.824;2023-04-10T09:39:20;99018.41;;;13.39;100.00
9672;BME280;4874;43.568;27.824;2023-04-10T09:41:50;99049.88;;;13.69;100.00
9672;BME280;4874;43.568;27.824;2023-04-10T09:44:28;99052.03;;;13.73;100.00
9672;BME280;4874;43.568;27.824;2023-04-10T09:46:59;99045.81;;;13.57;100.00
9672;BME280;4874;43.568;27.824;2023-04-10T09:49:48;99043.66;;;13.52;100.00
9672;BME280;4874;43.568;27.824;2023-04-10T09:52:23;99039.19;;;13.61;100.00
9672;BME280;4874;43.568;27.824;2023-04-10T09:54:54;99024.16;;;13.60;100.00
9672;BME280;4874;43.568;27.824;2023-04-10T09:57:23;99026.38;;;13.88;100.00
9672;BME280;4874;43.568;27.824;2023-04-10T09:59:55;99021.03;;;13.80;100.00
9672;BME280;4874;43.568;27.824;2023-04-10T10:02:23;99028.72;;;13.83;100.00
9672;BME280;4874;43.568;27.824;2023-04-10T10:04:51;99018.59;;;13.95;100.00
9672;BME280;4874;43.568;27.824;2023-04-10T10:07:20;99021.78;;;14.06;100.00
9672;BME280;4874;43.568;27.824;2023-04-10T10:09:49;99027.66;;;14.26;100.00
9672;BME280;4874;43.568;27.824;2023-04-10T10:12:34;99024.28;;;14.08;100.00
9672;BME280;4874;43.568;27.824;2023-04-10T10:17:38;99005.91;;;14.21;100.00
9672;BME280;4874;43.568;27.824;2023-04-10T10:20:10;99003.91;;;14.23;100.00
9672;BME280;4874;43.568;27.824;2023-04-10T10:22:38;99012.94;;;14.14;100.00
9672;BME280;4874;43.568;27.824;2023-04-10T10:25:06;99007.25;;;14.09;100.00
9672;BME280;4874;43.568;27.824;2023-04-10T10:27:36;98925.81;;;13.97;100.00
9672;BME280;4874;43.568;27.824;2023-04-10T10:30:05;99011.78;;;14.49;100.00
9672;BME280;4874;43.568;27.824;2023-04-10T10:32:46;99005.25;;;14.11;100.00
9672;BME280;4874;43.568;27.824;2023-04-10T10:35:13;99002.47;;;14.45;100.00
9672;BME280;4874;43.568;27.824;2023-04-10T10:37:41;99000.41;;;14.14;100.00
9672;BME280;4874;43.568;27.824;2023-04-10T10:40:39;98999.28;;;14.33;100.00
9672;BME280;4874;43.568;27.824;2023-04-10T10:45:53;98986.88;;;13.92;100.00
9672;BME280;4874;43.568;27.824;2023-04-10T10:48:23;98979.38;;;13.95;100.00
9672;BME280;4874;43.568;27.824;2023-04-10T10:50:58;98980.03;;;13.97;100.00
9672;BME280;4874;43.568;27.824;2023-04-10T10:53:37;98980.91;;;14.14;100.00
9672;BME280;4874;43.568;27.824;2023-04-10T10:58:51;98972.03;;;13.97;100.00
9672;BME280;4874;43.568;27.824;2023-04-10T11:01:18;98970.38;;;14.12;100.00
9672;BME280;4874;43.568;27.824;2023-04-10T11:03:47;98969.72;;;14.18;100.00
9672;BME280;4874;43.568;27.824;2023-04-10T11:06:18;98963.19;;;14.13;100.00
9672;BME280;4874;43.568;27.824;2023-04-10T11:08:50;98950.06;;;14.28;100.00
9672;BME280;4874;43.568;27.824;2023-04-10T11:11:20;98949.06;;;14.45;100.00
9672;BME280;4874;43.568;27.824;2023-04-10T11:16:18;98937.69;;;14.43;100.00
9672;BME280;4874;43.568;27.824;2023-04-10T11:21:22;98930.16;;;14.38;100.00
9672;BME280;4874;43.568;27.824;2023-04-10T11:32:03;98863.94;;;14.01;100.00
9672;BME280;4874;43.568;27.824;2023-04-10T11:34:31;98925.81;;;14.53;100.00
9672;BME280;4874;43.568;27.824;2023-04-10T11:37:01;98911.09;;;14.57;100.00
9672;BME280;4874;43.568;27.824;2023-04-10T11:39:29;98902.59;;;14.62;100.00
9672;BME280;4874;43.568;27.824;2023-04-10T11:41:57;98901.41;;;14.64;100.00
9672;BME280;4874;43.568;27.824;2023-04-10T11:44:31;98897.97;;;14.40;100.00
9672;BME280;4874;43.568;27.824;2023-04-10T11:47:00;98895.69;;;14.75;100.00
9672;BME280;4874;43.568;27.824;2023-04-10T11:49:30;98881.84;;;14.64;100.00
9672;BME280;4874;43.568;27.824;2023-04-10T11:51:58;98891.34;;;14.74;100.00
9672;BME280;4874;43.568;27.824;2023-04-10T11:54:26;98876.03;;;14.68;100.00
9672;BME280;4874;43.568;27.824;2023-04-10T11:57:04;98801.88;;;14.15;100.00
9672;BME280;4874;43.568;27.824;2023-04-10T11:59:32;98890.75;;;14.56;100.00
9672;BME280;4874;43.568;27.824;2023-04-10T12:02:07;98887.06;;;14.65;100.00
9672;BME280;4874;43.568;27.824;2023-04-10T12:04:35;98838.56;;;14.22;100.00
9672;BME280;4874;43.568;27.824;2023-04-10T12:07:02;98896.44;;;14.45;100.00
9672;BME280;4874;43.568;27.824;2023-04-10T12:09:28;98893.13;;;14.43;100.00
9672;BME280;4874;43.568;27.824;2023-04-10T12:16:56;98874.31;;;14.75;100.00
9672;BME280;4874;43.568;27.824;2023-04-10T12:19:24;98871.16;;;14.72;100.00
9672;BME280;4874;43.568;27.824;2023-04-10T12:21:51;98874.88;;;14.63;100.00
9672;BME280;4874;43.568;27.824;2023-04-10T12:27:19;98873.69;;;14.57;100.00
9672;BME280;4874;43.568;27.824;2023-04-10T12:29:48;98840.38;;;14.37;100.00
9672;BME280;4874;43.568;27.824;2023-04-10T12:32:16;98869.59;;;14.39;100.00
9672;BME280;4874;43.568;27.824;2023-04-10T12:34:55;98867.56;;;14.49;100.00
9672;BME280;4874;43.568;27.824;2023-04-10T12:37:24;98859.22;;;14.44;100.00
9672;BME280;4874;43.568;27.824;2023-04-10T12:39:51;98866.75;;;14.48;99.96
9672;BME280;4874;43.568;27.824;2023-04-10T12:42:19;98852.19;;;14.51;99.59
9672;BME280;4874;43.568;27.824;2023-04-10T12:44:58;98842.84;;;14.55;99.22
9672;BME280;4874;43.568;27.824;2023-04-10T12:47:27;98850.72;;;14.40;99.85
9672;BME280;4874;43.568;27.824;2023-04-10T12:50:07;98839.44;;;14.69;100.00
9672;BME280;4874;43.568;27.824;2023-04-10T12:52:35;98849.47;;;14.59;100.00
9672;BME280;4874;43.568;27.824;2023-04-10T12:57:47;98835.19;;;14.44;100.00
9672;BME280;4874;43.568;27.824;2023-04-10T13:00:19;98829.53;;;14.39;100.00
9672;BME280;4874;43.568;27.824;2023-04-10T13:02:47;98826.94;;;14.61;100.00
9672;BME280;4874;43.568;27.824;2023-04-10T13:05:14;98824.13;;;14.55;100.00
9672;BME280;4874;43.568;27.824;2023-04-10T13:07:41;98823.03;;;14.33;100.00
9672;BME280;4874;43.568;27.824;2023-04-10T13:10:09;98801.03;;;14.31;100.00
9672;BME280;4874;43.568;27.824;2023-04-10T13:12:36;98803.47;;;14.41;100.00
9672;BME280;4874;43.568;27.824;2023-04-10T13:15:04;98815.00;;;14.41;100.00
9672;BME280;4874;43.568;27.824;2023-04-10T13:17:33;98791.47;;;14.45;100.00
9672;BME280;4874;43.568;27.824;2023-04-10T13:20:00;98812.88;;;14.67;100.00
9672;BME280;4874;43.568;27.824;2023-04-10T13:22:26;98798.75;;;14.51;100.00
9672;BME280;4874;43.568;27.824;2023-04-10T13:24:53;98806.91;;;14.65;100.00
9672;BME280;4874;43.568;27.824;2023-04-10T13:27:20;98810.59;;;14.56;100.00
9672;BME280;4874;43.568;27.824;2023-04-10T13:29:47;98808.13;;;14.55;100.00
9672;BME280;4874;43.568;27.824;2023-04-10T13:32:14;98818.34;;;14.43;100.00
9672;BME280;4874;43.568;27.824;2023-04-10T13:34:41;98812.84;;;14.37;100.00
9672;BME280;4874;43.568;27.824;2023-04-10T13:37:08;98813.81;;;14.44;100.00
9672;BME280;4874;43.568;27.824;2023-04-10T13:39:37;98811.84;;;14.38;100.00
9672;BME280;4874;43.568;27.824;2023-04-10T13:42:04;98809.03;;;14.15;100.00
9672;BME280;4874;43.568;27.824;2023-04-10T13:44:30;98822.88;;;14.27;100.00
9672;BME280;4874;43.568;27.824;2023-04-10T13:46:57;98809.84;;;14.40;100.00
9672;BME280;4874;43.568;27.824;2023-04-10T13:49:24;98789.31;;;14.32;100.00
9672;BME280;4874;43.568;27.824;2023-04-10T13:51:51;98786.00;;;14.30;100.00
9672;BME280;4874;43.568;27.824;2023-04-10T13:54:18;98797.44;;;14.47;100.00
9672;BME280;4874;43.568;27.824;2023-04-10T13:56:45;98803.22;;;14.28;100.00
9672;BME280;4874;43.568;27.824;2023-04-10T13:59:12;98799.69;;;14.27;100.00